Antelope Valley, Nevada Weather observations

Data are for 10 minute period ending at time listed.
 Day   Time   Solar   Ave.   Ave.  Ave.  Vector  Max.   Baro.   Total    
  of    of     Rad.   Air    Rel.  Wind   Wind   Wind  Press.  Precip.   
Year   Day            Temp.  Hum.  Speed  Dir.   Gust                    
2017   (PST)  Kw/m2    F      %     mph   deg.    mph    mb.     in.     
-------------------------------------------------------------------------
  81    1:30   0.00   33.5    94    3.7   183     4.4   848.0    0.00 
  81    1:40   0.00   34.0    94    3.9   169     4.4   848.0    0.00 
  81    1:50   0.00   34.2    94    2.8   163     3.9   848.0    0.00 
  81    2:00   0.00   34.0    94    2.1   232     3.7   848.0    0.00 
  81    2:10   0.00   33.5    94    2.4   247     3.8   847.8    0.00 
  81    2:20   0.00   33.4    94    2.7   181     4.4   847.7    0.00 
  81    2:30   0.00   33.3    94    4.0   152     4.5   847.5    0.00 
  81    2:40   0.00   32.8    94    2.5   142     3.9   847.5    0.00 
  81    2:50   0.00   33.0    94    2.9   154     4.5   847.4    0.00 
  81    3:00   0.00   32.4    94    1.7   161     3.8   847.3    0.00 
  81    3:10   0.00   32.2    94    0.7   206     2.1   847.3    0.00 
  81    3:20   0.00   31.4    94    0.9   219     2.5   847.3    0.00 
  81    3:30   0.00   30.8    94    0.7   202     2.9   847.2    0.00 
  81    3:40   0.00   30.4    94    1.9   159     3.4   847.2    0.00 
  81    3:50   0.00   29.8    94    3.4   242     4.3   847.3    0.00 
  81    4:00   0.00   29.1    94    2.1   263     3.5   847.3    0.00 
  81    4:10   0.00   28.6    94    1.4   220     2.5   847.3    0.00 
  81    4:20   0.00   29.3    95    1.4   177     2.9   847.4    0.00 
  81    4:30   0.00   30.1    95    1.4   166     2.1   847.3    0.00 
  81    4:40   0.00   29.6    94    2.5   144     6.1   847.3    0.00 
  81    4:50   0.00   29.4    95    3.8   106     6.5   847.3    0.00 
  81    5:00   0.00   29.8    94    1.2   147     3.2   847.4    0.00 
  81    5:10   0.00   28.5    94    3.0   249     4.5   847.4    0.00 
  81    5:20   0.00   28.3    95    1.2   238     3.1   847.4    0.00 
  81    5:30   0.00   28.7    95    3.2   222     4.3   847.5    0.00 
  81    5:40   0.00   28.0    94    0.9   205     1.5   847.4    0.00 
  81    5:50   0.00   28.1    95    0.5    28     2.0   847.4    0.00 
  81    6:00   0.00   28.5    95    0.4    73     2.0   847.3    0.00 
  81    6:10   0.01   28.4    94    2.2    80     4.7   847.3    0.00 
  81    6:20   0.02   27.7    95    1.7    39     3.4   847.4    0.00 
  81    6:30   0.03   27.7    95    2.0   332     3.3   847.5    0.00 
  81    6:40   0.04   28.2    95    2.9   334     3.7   847.6    0.00 
  81    6:50   0.06   29.3    95    0.2   346     1.7   847.6    0.00 
  81    7:00   0.07   29.8    95    1.5   118     2.3   847.7    0.00 
  81    7:10   0.10   30.4    95    1.7   115     2.5   847.6    0.00 
  81    7:20   0.12   31.8    95    0.2    88     1.5   847.7    0.00 
  81    7:30   0.13   32.3    94    2.5   337     3.7   847.6    0.00 
  81    7:40   0.14   33.0    94    1.4   357     2.5   847.5    0.00 
  81    7:50   0.13   34.1    94    1.1     5     2.0   847.5    0.01 
  81    8:00   0.13   35.3    94    1.4    49     2.6   847.4    0.00 
  81    8:10   0.16   36.4    94    2.8    44     3.7   847.4    0.00 
  81    8:20   0.16   37.4    93    3.1    44     4.2   847.3    0.00 
  81    8:30   0.16   38.3    92    3.1    36     4.5   847.3    0.00 
  81    8:40   0.23   39.3    91    3.6    41     5.1   847.3    0.00 
  81    8:50   0.16   40.5    90    4.0    22     6.7   847.4    0.00 
  81    9:00   0.23   41.0    88    5.5    34     8.0   847.3    0.00 
  81    9:10   0.28   41.7    87    4.9    35     7.9   847.4    0.00 
  81    9:20   0.18   42.0    85    5.5    28     8.0   847.6    0.00 
  81    9:30   0.24   42.3    85    9.2    45    12.1   847.4    0.00 
  81    9:40   0.70   44.5    83    8.8    38    13.6   847.5    0.00 
  81    9:50   0.47   45.8    78   10.4    52    14.6   847.3    0.00 
  81   10:00   0.53   46.1    75    8.8    30    11.8   847.5    0.00 
  81   10:10   0.33   46.3    72    7.9    25    11.0   847.6    0.00 
  81   10:20   0.34   46.1    75    6.8   315     9.3   847.9    0.00 
  81   10:30   0.44   46.3    72    4.7   317     8.1   847.9    0.00 
  81   10:40   0.56   48.2    69    6.9   293    19.4   848.0    0.00 
  81   10:50   0.27   45.5    72   15.4   255    22.5   848.2    0.00 
  81   11:00   0.36   45.6    65   11.8   253    18.8   848.0    0.00 
  81   11:10   0.44   46.1    62   10.7   247    16.7   847.9    0.00 
  81   11:20   0.32   45.8    60    8.0   245    13.1   847.8    0.00 
  81   11:30   0.22   45.0    59    4.9   243     8.3   847.8    0.00 
  81   11:40   0.16   45.0    61    5.3   220     9.0   847.8    0.00 
  81   11:50   0.16   44.9    63    6.5   207     9.4   847.7    0.00 
  81   12:00   0.18   44.8    61    7.4   148    13.3   847.2    0.00 
  81   12:10   0.12   44.8    63    9.0   176    13.2   847.6    0.00 
  81   12:20   0.08   44.3    64   11.3   163    18.3   847.4    0.00 
  81   12:30   0.07   43.9    64   10.8   157    16.1   847.3    0.00 
  81   12:40   0.08   44.5    60   10.8   178    15.1   847.4    0.00 
  81   12:50   0.08   44.2    60   11.9   176    17.5   847.3    0.00 
  81   13:00   0.08   44.0    62    8.1   185    11.9   847.1    0.00 
  81   13:10   0.10   44.5    60    8.7   224    12.5   847.1    0.00 
  81   13:20   0.10   44.6    62    7.8   220    11.7   847.1    0.00 
  81   13:30   0.10   44.6    57    5.6   185    11.1   846.8    0.00 
  81   13:40   0.12   45.2    55    4.2   148     7.7   846.5    0.00 
  81   13:50   0.15   45.4    57    6.6   262     9.9   846.6    0.00 
  81   14:00   0.20   45.8    55    4.4   247     9.6   846.5    0.00 
  81   14:10   0.21   45.8    53    6.2   154    10.3   846.5    0.00 
  81   14:20   0.19   46.1    51    3.6   170     5.3   846.5    0.00 
  81   14:30   0.19   46.1    55    6.2   166    11.2   846.4    0.00 
  81   14:40   0.25   46.0    57    6.9   162     9.6   846.2    0.00 
  81   14:50   0.34   46.5    55    6.0   166     8.3   846.2    0.00 
  81   15:00   0.33   47.1    52    4.9   166     8.0   846.3    0.00 
  81   15:10   0.25   47.1    52    6.0   175    11.0   846.4    0.00 
  81   15:20   0.23   46.6    52    7.6   195    11.9   846.4    0.00 
  81   15:30   0.17   46.2    55    7.7   189    10.7   846.5    0.00 
  81   15:40   0.15   45.7    56    7.7   193    11.1   846.4    0.00 
  81   15:50   0.20   45.7    59    8.5   164    11.2   846.2    0.00 
  81   16:00   0.17   45.7    61    8.1   165    12.1   846.2    0.00 
  81   16:10   0.10   45.1    65    7.1   220    12.5   846.4    0.00 
  81   16:20   0.09   43.0    69    5.1    41    13.2   846.5    0.00 
  81   16:30   0.10   42.4    73    9.9   348    14.2   846.6    0.00 
  81   16:40   0.06   42.1    75    9.5     5    12.6   846.6    0.00 
  81   16:50   0.04   41.5    78   10.1    44    13.8   846.6    0.00 
  81   17:00   0.03   39.6    82   11.4    61    14.6   846.6    0.00 
  81   17:10   0.02   39.0    83   11.1    56    14.6   846.5    0.00 
  81   17:20   0.02   38.9    83    9.8    54    13.1   846.4    0.00 
  81   17:30   0.02   39.2    82    6.0    50    10.3   846.4    0.00 
  81   17:40   0.02   39.5    82    4.0    30     6.6   846.4    0.00 
  81   17:50   0.01   39.2    82    4.1   345     6.2   846.5    0.00 
  81   18:00   0.01   38.6    84    2.9   344     4.5   846.5    0.00 
  81   18:10   0.00   38.1    85    2.5     9     3.4   846.4    0.00 
  81   18:20   0.00   37.9    85    1.0     4     2.9   846.6    0.00 
  81   18:30   0.00   37.5    86    1.2    70     2.3   846.6    0.00 
  81   18:40   0.00   37.5    87    0.9    94     1.8   846.6    0.00 
  81   18:50   0.00   37.1    87    0.1    99     1.2   846.6    0.00 
  81   19:00   0.00   37.3    88    1.6    82     2.9   846.6    0.00 
  81   19:10   0.00   37.8    87    2.4    57     3.4   846.6    0.00 
  81   19:20   0.00   37.8    87    1.3   345     2.9   846.7    0.00 
  81   19:30   0.00   37.9    87    2.0   130     3.6   846.8    0.00 
  81   19:40   0.00   38.2    88    3.7   108     5.5   846.7    0.00 
  81   19:50   0.00   38.3    88    3.5    78     5.6   846.7    0.00 
  81   20:00   0.00   38.3    89    3.8   357     5.4   846.9    0.00 
  81   20:10   0.00   38.2    89    5.2   341     6.5   847.1    0.00 
  81   20:20   0.00   38.1    89    7.4   360    13.2   847.3    0.01 
  81   20:30   0.00   37.1    86   12.0   319    22.6   847.5    0.01 
  81   20:40   0.00   36.5    87   10.7   300    15.6   847.5    0.01 
  81   20:50   0.00   36.8    85    5.6     1    12.3   847.2    0.01 
  81   21:00   0.00   37.5    82    7.1    81    12.7   846.9    0.01 
  81   21:10   0.00   37.5    83    7.2   101    11.6   846.8    0.01 
  81   21:20   0.00   37.1    85    5.7    97     8.2   846.7    0.00 
  81   21:30   0.00   37.3    85    3.8    50     5.8   846.8    0.01 
  81   21:40   0.00   36.8    88    4.5   344     6.0   846.8    0.00 
  81   21:50   0.00   36.2    90    4.1   332     5.0   846.9    0.01 
  81   22:00   0.00   36.0    91    4.4   311     7.2   846.8    0.00 
  81   22:10   0.00   35.5    92    5.2   314     7.6   846.9    0.00 
  81   22:20   0.00   35.3    92    3.1   324     4.6   846.9    0.00 
  81   22:30   0.00   35.2    92    3.0   335     4.3   846.9    0.00 
  81   22:40   0.00   35.1    93    2.6   353     3.9   846.9    0.00 
  81   22:50   0.00   35.1    93    2.1   328     3.2   846.8    0.00 
  81   23:00   0.00   35.1    93    1.5   288     3.7   846.8    0.00 
  81   23:10   0.00   34.9    93    4.5   131     8.1   846.9    0.00 
  81   23:20   0.00   34.9    93    2.3   112     3.7   847.0    0.00 
  81   23:30   0.00   34.9    93    2.6   131     4.0   847.0    0.00 
  81   23:40   0.00   34.9    93    2.8   105     3.8   846.9    0.00 
  81   23:50   0.00   35.1    93    1.7   106     3.0   846.9    0.00 
  82    0:00   0.00   35.0    93    0.8   131     1.8   847.0    0.00 
  82    0:10   0.00   34.7    93    1.7   182     3.3   847.0    0.00 
  82    0:20   0.00   34.0    93    2.4   245     3.6   847.0    0.00 
  82    0:30   0.00   33.7    93    3.5   262     4.6   847.1    0.00 
  82    0:40   0.00   34.0    94    3.8   252     5.2   847.2    0.00 
  82    0:50   0.00   34.2    94    3.2   250     3.9   847.2    0.00 
  82    1:00   0.00   33.4    94    4.2   242     5.1   847.2    0.00 
  82    1:10   0.00   32.9    94    3.4   170     6.9   847.3    0.00 
  82    1:20   0.00   33.5    95    3.4   158     4.5   847.3    0.00 

Return to Antelope Valley graphs page.


Western Regional Climate Center,wrcc@dri.edu